Flight Track Log - Related Links

Times and Time Zones

All times are in EDT time to prevent confusion due to time zone crossing. See the ASQ4905 flight status page for this flight to view local times or setup timezone preferences in your user account.

Time Position Orientation Groundspeed Altitude Reporting Facility
EDT Latitude Longitude Course Direction KTS MPH feet Rate Location/Type
Tue 08:12:54 PM 42.2292 -83.3647 354° North 160 184 1,300  Level Cleveland Center
Tue 08:13:36 PM 42.2644 -83.3697 354° North 205 236 2,500 1,622 Climbing Cleveland Center
Tue 08:14:08 PM 42.2956 -83.3761 351° North 215 247 3,300 1,742 Climbing Cleveland Center
Tue 08:14:38 PM 42.3231 -83.3978 330° Northwest 265 305 4,300 2,516 Climbing Cleveland Center
Tue 08:15:10 PM 42.3522 -83.4292 322° Northwest 253 291 5,900 3,049 Climbing Cleveland Center
Tue 08:15:39 PM 42.3647 -83.4828 288° West 276 318 7,400 2,656 Climbing Cleveland Center
Tue 08:16:11 PM 42.3642 -83.5289 269° West 276 318 8,600 2,234 Climbing Cleveland Center
Tue 08:17:13 PM 42.3178 -83.6072 231° Southwest 292 336 10,900 1,839 Climbing Cleveland Center
Tue 08:18:15 PM 42.2161 -83.6633 202° Southwest 354 407 12,400 1,694 Climbing Cleveland Center
Tue 08:19:17 PM 42.1156 -83.6875 190° South 369 425 14,400 1,790 Climbing Cleveland Center
Tue 08:20:19 PM 42.0103 -83.7133 190° South 383 441 16,100 1,694 Climbing Cleveland Center
Tue 08:21:21 PM 41.8986 -83.7800 204° Southwest 395 455 17,900 1,645 Climbing Cleveland Center
Tue 08:22:23 PM 41.8067 -83.8339 204° Southwest 398 458 19,500 1,742 Climbing Cleveland Center
Tue 08:23:25 PM 41.6828 -83.9053 203° Southwest 403 464 21,500 1,742 Climbing Cleveland Center
Tue 08:24:27 PM 41.5789 -83.9672 204° Southwest 405 466 23,100 1,500 Climbing Cleveland Center
Tue 08:25:29 PM 41.4772 -84.0389 208° Southwest 413 475 24,600 1,258 Climbing Cleveland Center
Tue 08:26:31 PM 41.4231 -84.1683 241° Southwest 397 457 25,700 1,065 Climbing Cleveland Center
Tue 08:27:33 PM 41.3589 -84.3158 240° Southwest 407 468 26,800 1,016 Climbing Cleveland Center
Tue 08:28:35 PM 41.3008 -84.4519 240° Southwest 417 480 27,800 581 Climbing Cleveland Center
Tue 08:29:37 PM 41.2411 -84.5894 240° Southwest 426 490 28,000 114 Climbing Cleveland Center
Tue 08:30:20 PM 41.2033 -84.6744 239° Southwest 437 503 28,000 343 Level Chicago Center
Tue 08:31:22 PM 41.1275 -84.8522 241° Southwest 456 525 28,600 823 Climbing Chicago Center
Tue 08:32:24 PM 41.0733 -85.0011 244° Southwest 452 520 29,700 1,016 Climbing Chicago Center
Tue 08:33:26 PM 41.0192 -85.1481 244° Southwest 445 512 30,700 968 Climbing Chicago Center
Tue 08:34:28 PM 40.9644 -85.2933 244° Southwest 443 510 31,700 968 Climbing Chicago Center
Tue 08:35:30 PM 40.9119 -85.4367 244° Southwest 436 502 32,700 968 Climbing Chicago Center
Tue 08:36:32 PM 40.8586 -85.5789 244° Southwest 433 498 33,700 968 Climbing Chicago Center
Tue 08:37:34 PM 40.8072 -85.7172 244° Southwest 424 488 34,700 1,016 Climbing Chicago Center
Tue 08:38:36 PM 40.7456 -85.8797 243° Southwest 415 478 35,800 629 Climbing Chicago Center
Tue 08:39:38 PM 40.6933 -86.0161 243° Southwest 415 478 36,000 97 Climbing Chicago Center
Tue 08:40:40 PM 40.6461 -86.1403 243° Southwest 424 488 36,000 435 Level Chicago Center
Tue 08:41:42 PM 40.5825 -86.3119 244° Southwest 437 503 36,900 484 Climbing Chicago Center
Tue 08:42:44 PM 40.5286 -86.4508 243° Southwest 431 496 37,000 49 Climbing Chicago Center
Tue 08:43:45 PM 40.4739 -86.5922 243° Southwest 434 499 37,000  Level Chicago Center
Tue 08:44:47 PM 40.4203 -86.7314 243° Southwest 433 498 37,000  Level Chicago Center
Tue 08:45:49 PM 40.3650 -86.8711 243° Southwest 433 498 37,000  Level Chicago Center
Tue 08:46:51 PM 40.2994 -87.0383 243° Southwest 434 499 37,000  Level Chicago Center
Tue 08:47:53 PM 40.2447 -87.1761 243° Southwest 431 496 37,000  Level Chicago Center
Tue 08:48:55 PM 40.1894 -87.3161 243° Southwest 432 497 37,000  Level Chicago Center
Tue 08:49:57 PM 40.1358 -87.4517 243° Southwest 425 489 37,000  Level Chicago Center
Tue 08:52:20 PM 40.0194 -87.7917 246° West 431 496 37,000  Level Indianapolis Center
Tue 08:53:21 PM 39.9750 -87.9356 248° West 430 495 37,000  Level Indianapolis Center
Tue 08:54:17 PM 39.9306 -88.0808 248° West 429 494 37,000  Level Chicago Center
Tue 08:55:19 PM 39.8856 -88.2217 247° West 430 495 37,000  Level Chicago Center
Tue 08:56:20 PM 39.8331 -88.3614 244° Southwest 429 494 37,000  Level Chicago Center
Tue 08:57:22 PM 39.7708 -88.4992 240° Southwest 439 505 37,000  Level Chicago Center
Tue 08:58:24 PM 39.7092 -88.6383 240° Southwest 442 509 37,000  Level Chicago Center
Tue 08:59:27 PM 39.6467 -88.7756 239° Southwest 440 506 37,000 484 Level Kansas City Center
Tue 09:00:28 PM 39.5728 -88.9383 240° Southwest 439 505 38,000 480 Climbing Kansas City Center
Tue 09:01:32 PM 39.5117 -89.0739 240° Southwest 437 503 38,000  Level Kansas City Center
Tue 09:02:33 PM 39.4497 -89.2117 240° Southwest 438 504 38,000  Level Kansas City Center
Tue 09:03:35 PM 39.3847 -89.3544 240° Southwest 440 506 38,000  Level Kansas City Center
Tue 09:04:36 PM 39.3219 -89.4897 239° Southwest 440 506 38,000  Level Kansas City Center
Tue 09:05:40 PM 39.2608 -89.6239 240° Southwest 440 506 38,000  Level Kansas City Center
Tue 09:06:41 PM 39.1992 -89.7567 239° Southwest 436 502 38,000  Level Kansas City Center
Tue 09:07:43 PM 39.1267 -89.9172 240° Southwest 430 495 38,000  Level Kansas City Center
Tue 09:08:44 PM 39.0653 -90.0444 238° Southwest 431 496 38,000  Level Kansas City Center
Tue 09:09:45 PM 39.0036 -90.1789 239° Southwest 431 496 38,000  Level Kansas City Center
Tue 09:10:50 PM 38.9414 -90.3083 238° Southwest 432 497 38,000  Level Kansas City Center
Tue 09:11:51 PM 38.8778 -90.4486 240° Southwest 431 496 38,000  Level Kansas City Center
Tue 09:12:53 PM 38.8150 -90.5783 238° Southwest 431 496 38,000  Level Kansas City Center
Tue 09:13:53 PM 38.7442 -90.7144 236° Southwest 428 493 38,000  Level Kansas City Center
Tue 09:14:56 PM 38.6797 -90.8408 237° Southwest 429 494 38,000  Level Kansas City Center
Tue 09:15:57 PM 38.6153 -90.9675 237° Southwest 428 493 38,000  Level Kansas City Center
Tue 09:17:00 PM 38.5517 -91.0928 237° Southwest 424 488 38,000  Level Kansas City Center
Tue 09:18:01 PM 38.4872 -91.2183 237° Southwest 424 488 38,000  Level Kansas City Center
Tue 09:19:02 PM 38.4075 -91.3719 237° Southwest 430 495 38,000  Level Kansas City Center
Tue 09:20:04 PM 38.3483 -91.4822 236° Southwest 427 491 38,000  Level Kansas City Center
Tue 09:21:08 PM 38.2711 -91.6317 237° Southwest 424 488 38,000  Level Kansas City Center
Tue 09:22:09 PM 38.2047 -91.7572 236° Southwest 425 489 38,000  Level Kansas City Center
Tue 09:23:10 PM 38.1397 -91.8808 236° Southwest 423 487 38,000  Level Kansas City Center
Tue 09:24:11 PM 38.0819 -92.0119 241° Southwest 428 493 38,000  Level Kansas City Center
Tue 09:25:13 PM 38.0386 -92.1642 250° West 420 483 38,000  Level Kansas City Center
Tue 09:26:15 PM 37.9978 -92.3053 250° West 423 487 38,000  Level Kansas City Center
Tue 09:27:16 PM 37.9583 -92.4453 250° West 428 493 38,000  Level Kansas City Center
Tue 09:28:20 PM 37.9178 -92.5858 250° West 427 491 38,000  Level Kansas City Center
Tue 09:29:20 PM 37.8772 -92.7256 250° West 427 491 38,000  Level Kansas City Center
Tue 09:30:22 PM 37.8339 -92.8717 249° West 426 490 38,000  Level Kansas City Center
Tue 09:31:26 PM 37.7933 -93.0106 250° West 426 490 38,000  Level Kansas City Center
Tue 09:32:26 PM 37.7517 -93.1497 249° West 426 490 38,000  Level Kansas City Center
Tue 09:33:27 PM 37.7017 -93.3181 249° West 425 489 38,000  Level Kansas City Center
Tue 09:34:30 PM 37.6603 -93.4586 250° West 425 489 38,000  Level Kansas City Center
Tue 09:35:33 PM 37.6183 -93.5997 249° West 426 490 38,000  Level Kansas City Center
Tue 09:36:34 PM 37.5764 -93.7397 249° West 427 491 38,000  Level Kansas City Center
Tue 09:37:34 PM 37.5339 -93.8828 250° West 431 496 38,000  Level Kansas City Center
Tue 09:38:36 PM 37.4917 -94.0233 249° West 429 494 38,000  Level Kansas City Center
Tue 09:39:39 PM 37.4494 -94.1600 249° West 424 488 38,000  Level Kansas City Center
Tue 09:40:42 PM 37.3981 -94.3303 249° West 427 491 38,000  Level Kansas City Center
Tue 09:41:44 PM 37.3539 -94.4703 248° West 429 494 38,000  Level Kansas City Center
Tue 09:42:44 PM 37.3114 -94.6119 249° West 430 495 38,000  Level Kansas City Center
Tue 09:43:45 PM 37.2669 -94.7525 248° West 431 496 38,000  Level Kansas City Center
Tue 09:44:48 PM 37.2211 -94.8917 248° West 431 496 38,000  Level Kansas City Center
Tue 09:45:49 PM 37.1775 -95.0317 249° West 431 496 38,000  Level Kansas City Center
Tue 09:46:51 PM 37.1331 -95.1731 249° West 432 497 38,000  Level Kansas City Center
Tue 09:47:52 PM 37.0803 -95.3417 249° West 433 498 38,000  Level Kansas City Center
Tue 09:48:53 PM 37.0367 -95.4825 249° West 433 498 38,000 -197 Level Kansas City Center
Tue 09:49:54 PM 36.9911 -95.6231 248° West 434 499 37,600 -432 Descending Kansas City Center
Tue 09:50:58 PM 36.9439 -95.7667 248° West 443 510 37,100 -480 Descending Kansas City Center
Tue 09:51:59 PM 36.8847 -95.9069 242° Southwest 455 524 36,600 -488 Descending Kansas City Center
Tue 09:53:01 PM 36.8050 -96.0333 232° Southwest 463 533 36,100 -1,392 Descending Kansas City Center
Tue 09:54:04 PM 36.7086 -96.1822 231° Southwest 463 533 33,700 -2,293 Descending Kansas City Center
Tue 09:55:04 PM 36.6294 -96.3064 232° Southwest 463 533 31,400 -2,350 Descending Kansas City Center
Tue 09:56:04 PM 36.5511 -96.4269 231° Southwest 455 524 29,000 -2,323 Descending Kansas City Center
Tue 09:57:08 PM 36.4756 -96.5428 231° Southwest 440 506 26,600 -1,680 Descending Kansas City Center
Tue 09:58:09 PM 36.4028 -96.6519 230° Southwest 419 482 25,500 -1,355 Descending Kansas City Center
Tue 09:59:12 PM 36.3292 -96.7642 231° Southwest 400 460 23,800 -1,902 Descending Kansas City Center
Tue 10:00:12 PM 36.2361 -96.8464 215° Southwest 409 471 21,600 -2,213 Descending Kansas City Center
Tue 10:01:14 PM 36.1442 -96.9322 217° Southwest 413 475 19,300 -2,177 Descending Kansas City Center
Tue 10:02:16 PM 36.0503 -97.0167 216° Southwest 414 476 17,100 -2,213 Descending Kansas City Center
Tue 10:03:16 PM 35.9561 -97.0994 215° Southwest 418 481 14,800 -2,467 Descending Kansas City Center
Tue 10:03:46 PM 35.9042 -97.1531 220° Southwest 414 476 13,400 -2,632 Descending Fort Worth Center
Tue 10:04:13 PM 35.8664 -97.1981 224° Southwest 384 442 12,300 -1,645 Descending Fort Worth Center
Tue 10:04:48 PM 35.8339 -97.2425 228° Southwest 366 421 11,700 -1,400 Descending Fort Worth Center
Tue 10:05:13 PM 35.7969 -97.2881 225° Southwest 315 362 10,900 -1,258 Descending Fort Worth Center
Tue 10:05:50 PM 35.7750 -97.3211 231° Southwest 315 362 10,400 -1,200 Descending Fort Worth Center
Tue 10:06:08 PM 35.7514 -97.3503 225° Southwest 284 327 9,800 -1,967 Descending Fort Worth Center
Tue 10:06:51 PM 35.7114 -97.4053 228° Southwest 282 325 8,400 -2,000 Descending Fort Worth Center
Tue 10:07:08 PM 35.6953 -97.4272 228° Southwest 275 316 7,800 -1,769 Descending Fort Worth Center
Tue 10:08:09 PM 35.6417 -97.4933 225° Southwest 272 313 6,100 -1,738 Descending Fort Worth Center
Tue 10:08:55 PM 35.6019 -97.5422 225° Southwest 268 308 4,700 -1,770 Descending Fort Worth Center
Tue 10:09:10 PM 35.5900 -97.5567 225° Southwest 265 305 4,300 -984 Descending Fort Worth Center
Tue 10:09:56 PM 35.5439 -97.5869 208° Southwest 249 287 3,700 -800 Descending Fort Worth Center
Tue 10:10:10 PM 35.5306 -97.5900 191° South 226 260 3,500 -677 Descending Fort Worth Center
Tue 10:10:58 PM 35.4903 -97.5892 179° South 186 214 3,000 -716 Descending Fort Worth Center
Tue 10:11:17 PM 35.4778 -97.5889 179° South 150 173 2,700 -774 Descending Fort Worth Center
Tue 10:12:00 PM 35.4494 -97.5892 180° South 136 157 2,200 -658 Descending Fort Worth Center
Tue 10:12:30 PM 35.4336 -97.5889 179° South 114 131 1,900 -590 Descending Fort Worth Center
Tue 10:13:01 PM 35.4153 -97.5894 181° South 127 146 1,600 -581 Descending Fort Worth Center

Login

Don't have an account? Register now (free) for customized features, flight alerts, and more!